sensor_id;sensor_type;location;lat;lon;timestamp;P1;durP1;ratioP1;P2;durP2;ratioP2
24813;SDS011;12904;50.088;11.414;2023-04-08T00:00:06;12.82;;;11.63;;
24813;SDS011;12904;50.088;11.414;2023-04-08T00:02:32;11.70;;;10.43;;
24813;SDS011;12904;50.088;11.414;2023-04-08T00:04:58;12.43;;;11.23;;
24813;SDS011;12904;50.088;11.414;2023-04-08T00:07:24;15.60;;;10.93;;
24813;SDS011;12904;50.088;11.414;2023-04-08T00:09:49;14.88;;;11.75;;
24813;SDS011;12904;50.088;11.414;2023-04-08T00:12:15;12.25;;;10.80;;
24813;SDS011;12904;50.088;11.414;2023-04-08T00:14:41;14.52;;;12.38;;
24813;SDS011;12904;50.088;11.414;2023-04-08T00:17:06;13.30;;;10.82;;
24813;SDS011;12904;50.088;11.414;2023-04-08T00:19:32;12.65;;;11.45;;
24813;SDS011;12904;50.088;11.414;2023-04-08T00:21:58;12.57;;;10.82;;
24813;SDS011;12904;50.088;11.414;2023-04-08T00:24:24;12.95;;;11.50;;
24813;SDS011;12904;50.088;11.414;2023-04-08T00:26:50;12.30;;;11.10;;
24813;SDS011;12904;50.088;11.414;2023-04-08T00:29:16;16.40;;;12.93;;
24813;SDS011;12904;50.088;11.414;2023-04-08T00:31:42;11.95;;;10.85;;
24813;SDS011;12904;50.088;11.414;2023-04-08T00:34:07;12.73;;;11.50;;
24813;SDS011;12904;50.088;11.414;2023-04-08T00:36:33;13.05;;;11.70;;
24813;SDS011;12904;50.088;11.414;2023-04-08T00:39:00;13.63;;;12.32;;
24813;SDS011;12904;50.088;11.414;2023-04-08T00:41:26;14.07;;;11.65;;
24813;SDS011;12904;50.088;11.414;2023-04-08T00:43:51;15.52;;;11.75;;
24813;SDS011;12904;50.088;11.414;2023-04-08T00:46:18;14.25;;;12.57;;
24813;SDS011;12904;50.088;11.414;2023-04-08T00:48:44;15.13;;;12.20;;
24813;SDS011;12904;50.088;11.414;2023-04-08T00:51:10;19.05;;;13.68;;
24813;SDS011;12904;50.088;11.414;2023-04-08T00:53:36;13.32;;;12.02;;
24813;SDS011;12904;50.088;11.414;2023-04-08T00:56:02;13.15;;;11.95;;
24813;SDS011;12904;50.088;11.414;2023-04-08T00:58:28;15.63;;;11.55;;
24813;SDS011;12904;50.088;11.414;2023-04-08T01:00:57;14.18;;;11.65;;
24813;SDS011;12904;50.088;11.414;2023-04-08T01:09:24;12.23;;;11.13;;
24813;SDS011;12904;50.088;11.414;2023-04-08T01:11:54;13.98;;;12.57;;
24813;SDS011;12904;50.088;11.414;2023-04-08T01:14:22;14.23;;;11.80;;
24813;SDS011;12904;50.088;11.414;2023-04-08T01:16:52;13.27;;;11.88;;
24813;SDS011;12904;50.088;11.414;2023-04-08T01:19:32;14.07;;;12.68;;
24813;SDS011;12904;50.088;11.414;2023-04-08T01:22:10;16.43;;;12.00;;
24813;SDS011;12904;50.088;11.414;2023-04-08T01:24:43;13.13;;;11.82;;
24813;SDS011;12904;50.088;11.414;2023-04-08T01:27:11;13.90;;;12.57;;
24813;SDS011;12904;50.088;11.414;2023-04-08T01:29:40;13.23;;;11.68;;
24813;SDS011;12904;50.088;11.414;2023-04-08T01:32:07;14.40;;;13.07;;
24813;SDS011;12904;50.088;11.414;2023-04-08T01:34:35;15.68;;;12.45;;
24813;SDS011;12904;50.088;11.414;2023-04-08T01:37:02;14.07;;;12.70;;
24813;SDS011;12904;50.088;11.414;2023-04-08T01:39:30;14.73;;;13.15;;
24813;SDS011;12904;50.088;11.414;2023-04-08T01:41:56;13.43;;;12.02;;
24813;SDS011;12904;50.088;11.414;2023-04-08T01:44:23;14.35;;;11.15;;
24813;SDS011;12904;50.088;11.414;2023-04-08T01:46:50;11.15;;;10.15;;
24813;SDS011;12904;50.088;11.414;2023-04-08T01:49:18;9.68;;;6.78;;
24813;SDS011;12904;50.088;11.414;2023-04-08T01:51:46;8.75;;;7.95;;
24813;SDS011;12904;50.088;11.414;2023-04-08T01:54:13;8.57;;;7.10;;
24813;SDS011;12904;50.088;11.414;2023-04-08T01:56:40;8.30;;;6.25;;
24813;SDS011;12904;50.088;11.414;2023-04-08T01:59:09;7.80;;;6.22;;
24813;SDS011;12904;50.088;11.414;2023-04-08T02:01:37;7.97;;;7.18;;
24813;SDS011;12904;50.088;11.414;2023-04-08T02:04:04;7.32;;;6.60;;
24813;SDS011;12904;50.088;11.414;2023-04-08T02:06:29;7.97;;;5.63;;
24813;SDS011;12904;50.088;11.414;2023-04-08T02:08:56;6.57;;;5.88;;
24813;SDS011;12904;50.088;11.414;2023-04-08T02:11:23;13.35;;;6.75;;
24813;SDS011;12904;50.088;11.414;2023-04-08T02:13:49;7.97;;;6.88;;
24813;SDS011;12904;50.088;11.414;2023-04-08T02:18:46;7.40;;;6.57;;
24813;SDS011;12904;50.088;11.414;2023-04-08T02:21:19;8.40;;;7.57;;
24813;SDS011;12904;50.088;11.414;2023-04-08T02:23:51;9.57;;;8.68;;
24813;SDS011;12904;50.088;11.414;2023-04-08T02:26:17;8.70;;;6.95;;
24813;SDS011;12904;50.088;11.414;2023-04-08T02:28:45;10.02;;;9.05;;
24813;SDS011;12904;50.088;11.414;2023-04-08T02:31:13;10.18;;;9.00;;
24813;SDS011;12904;50.088;11.414;2023-04-08T02:33:41;8.68;;;7.78;;
24813;SDS011;12904;50.088;11.414;2023-04-08T02:36:08;10.35;;;9.35;;
24813;SDS011;12904;50.088;11.414;2023-04-08T02:38:37;10.13;;;9.07;;
24813;SDS011;12904;50.088;11.414;2023-04-08T02:41:02;9.98;;;8.85;;
24813;SDS011;12904;50.088;11.414;2023-04-08T02:43:28;10.85;;;8.38;;
24813;SDS011;12904;50.088;11.414;2023-04-08T02:45:56;10.45;;;9.45;;
24813;SDS011;12904;50.088;11.414;2023-04-08T02:48:29;13.20;;;10.25;;
24813;SDS011;12904;50.088;11.414;2023-04-08T02:50:55;12.50;;;10.48;;
24813;SDS011;12904;50.088;11.414;2023-04-08T02:53:21;11.60;;;10.48;;
24813;SDS011;12904;50.088;11.414;2023-04-08T02:55:47;11.25;;;10.05;;
24813;SDS011;12904;50.088;11.414;2023-04-08T02:58:13;12.23;;;10.05;;
24813;SDS011;12904;50.088;11.414;2023-04-08T03:00:39;14.02;;;9.73;;
24813;SDS011;12904;50.088;11.414;2023-04-08T03:03:05;11.30;;;9.77;;
24813;SDS011;12904;50.088;11.414;2023-04-08T03:05:31;14.35;;;10.73;;
24813;SDS011;12904;50.088;11.414;2023-04-08T03:07:57;11.50;;;10.32;;
24813;SDS011;12904;50.088;11.414;2023-04-08T03:10:22;11.73;;;10.15;;
24813;SDS011;12904;50.088;11.414;2023-04-08T03:12:48;13.60;;;10.95;;
24813;SDS011;12904;50.088;11.414;2023-04-08T03:15:14;12.27;;;11.07;;
24813;SDS011;12904;50.088;11.414;2023-04-08T03:17:39;11.73;;;10.52;;
24813;SDS011;12904;50.088;11.414;2023-04-08T03:20:06;12.60;;;11.45;;
24813;SDS011;12904;50.088;11.414;2023-04-08T03:22:32;12.80;;;11.52;;
24813;SDS011;12904;50.088;11.414;2023-04-08T03:24:58;14.70;;;12.07;;
24813;SDS011;12904;50.088;11.414;2023-04-08T03:27:23;13.43;;;12.13;;
24813;SDS011;12904;50.088;11.414;2023-04-08T03:29:49;17.67;;;12.98;;
24813;SDS011;12904;50.088;11.414;2023-04-08T03:32:15;15.65;;;11.70;;
24813;SDS011;12904;50.088;11.414;2023-04-08T03:34:40;16.42;;;12.32;;
24813;SDS011;12904;50.088;11.414;2023-04-08T03:37:06;14.98;;;13.40;;
24813;SDS011;12904;50.088;11.414;2023-04-08T03:39:32;18.17;;;13.23;;
24813;SDS011;12904;50.088;11.414;2023-04-08T03:41:57;16.75;;;14.10;;
24813;SDS011;12904;50.088;11.414;2023-04-08T03:44:25;17.63;;;14.27;;
24813;SDS011;12904;50.088;11.414;2023-04-08T03:46:51;21.73;;;14.52;;
24813;SDS011;12904;50.088;11.414;2023-04-08T03:49:16;15.88;;;13.73;;
24813;SDS011;12904;50.088;11.414;2023-04-08T03:51:42;15.02;;;13.32;;
24813;SDS011;12904;50.088;11.414;2023-04-08T03:54:08;15.60;;;13.50;;
24813;SDS011;12904;50.088;11.414;2023-04-08T03:56:33;16.58;;;13.80;;
24813;SDS011;12904;50.088;11.414;2023-04-08T03:58:59;15.18;;;13.00;;
24813;SDS011;12904;50.088;11.414;2023-04-08T04:01:25;17.35;;;14.13;;
24813;SDS011;12904;50.088;11.414;2023-04-08T04:03:50;14.48;;;12.90;;
24813;SDS011;12904;50.088;11.414;2023-04-08T04:06:16;15.82;;;12.85;;
24813;SDS011;12904;50.088;11.414;2023-04-08T04:08:41;17.77;;;14.13;;
24813;SDS011;12904;50.088;11.414;2023-04-08T04:11:07;15.85;;;13.82;;
24813;SDS011;12904;50.088;11.414;2023-04-08T04:13:33;17.17;;;14.88;;
24813;SDS011;12904;50.088;11.414;2023-04-08T04:15:58;23.77;;;15.52;;
24813;SDS011;12904;50.088;11.414;2023-04-08T04:18:24;19.23;;;16.27;;
24813;SDS011;12904;50.088;11.414;2023-04-08T04:20:49;18.60;;;15.40;;
24813;SDS011;12904;50.088;11.414;2023-04-08T04:23:15;22.30;;;16.27;;
24813;SDS011;12904;50.088;11.414;2023-04-08T04:25:41;20.10;;;15.15;;
24813;SDS011;12904;50.088;11.414;2023-04-08T04:28:06;24.13;;;16.05;;
24813;SDS011;12904;50.088;11.414;2023-04-08T04:30:35;21.10;;;16.92;;
24813;SDS011;12904;50.088;11.414;2023-04-08T04:33:02;21.00;;;15.60;;
24813;SDS011;12904;50.088;11.414;2023-04-08T04:35:28;30.38;;;21.38;;
24813;SDS011;12904;50.088;11.414;2023-04-08T04:37:53;25.40;;;16.52;;
24813;SDS011;12904;50.088;11.414;2023-04-08T04:40:19;24.30;;;17.58;;
24813;SDS011;12904;50.088;11.414;2023-04-08T04:42:45;20.42;;;16.13;;
24813;SDS011;12904;50.088;11.414;2023-04-08T04:45:11;23.80;;;16.98;;
24813;SDS011;12904;50.088;11.414;2023-04-08T04:47:36;24.27;;;17.83;;
24813;SDS011;12904;50.088;11.414;2023-04-08T04:50:02;21.92;;;16.50;;
24813;SDS011;12904;50.088;11.414;2023-04-08T04:52:28;18.98;;;15.30;;
24813;SDS011;12904;50.088;11.414;2023-04-08T04:54:53;22.10;;;17.08;;
24813;SDS011;12904;50.088;11.414;2023-04-08T04:57:21;23.42;;;15.55;;
24813;SDS011;12904;50.088;11.414;2023-04-08T04:59:46;24.60;;;16.55;;
24813;SDS011;12904;50.088;11.414;2023-04-08T05:02:12;22.83;;;17.85;;
24813;SDS011;12904;50.088;11.414;2023-04-08T05:04:37;24.13;;;17.67;;
24813;SDS011;12904;50.088;11.414;2023-04-08T05:07:03;22.83;;;17.35;;
24813;SDS011;12904;50.088;11.414;2023-04-08T05:09:29;25.77;;;18.25;;
24813;SDS011;12904;50.088;11.414;2023-04-08T05:11:55;23.92;;;18.20;;
24813;SDS011;12904;50.088;11.414;2023-04-08T05:14:21;33.60;;;21.92;;
24813;SDS011;12904;50.088;11.414;2023-04-08T05:16:47;25.38;;;18.20;;
24813;SDS011;12904;50.088;11.414;2023-04-08T05:19:12;25.63;;;17.52;;
24813;SDS011;12904;50.088;11.414;2023-04-08T05:21:38;27.17;;;19.40;;
24813;SDS011;12904;50.088;11.414;2023-04-08T05:24:04;18.48;;;16.52;;
24813;SDS011;12904;50.088;11.414;2023-04-08T05:26:30;21.33;;;16.83;;
24813;SDS011;12904;50.088;11.414;2023-04-08T05:28:55;20.27;;;16.40;;
24813;SDS011;12904;50.088;11.414;2023-04-08T05:31:21;18.48;;;14.70;;
24813;SDS011;12904;50.088;11.414;2023-04-08T05:33:47;19.02;;;15.05;;
24813;SDS011;12904;50.088;11.414;2023-04-08T05:36:13;18.60;;;15.20;;
24813;SDS011;12904;50.088;11.414;2023-04-08T05:38:39;21.73;;;15.73;;
24813;SDS011;12904;50.088;11.414;2023-04-08T05:41:06;20.27;;;15.55;;
24813;SDS011;12904;50.088;11.414;2023-04-08T05:43:32;19.52;;;15.85;;
24813;SDS011;12904;50.088;11.414;2023-04-08T05:45:58;14.48;;;12.98;;
24813;SDS011;12904;50.088;11.414;2023-04-08T05:48:24;16.88;;;13.38;;
24813;SDS011;12904;50.088;11.414;2023-04-08T05:50:49;17.83;;;14.38;;
24813;SDS011;12904;50.088;11.414;2023-04-08T05:53:15;17.42;;;14.13;;
24813;SDS011;12904;50.088;11.414;2023-04-08T05:55:41;13.55;;;12.15;;
24813;SDS011;12904;50.088;11.414;2023-04-08T05:58:07;14.25;;;12.80;;
24813;SDS011;12904;50.088;11.414;2023-04-08T06:00:33;17.83;;;14.77;;
24813;SDS011;12904;50.088;11.414;2023-04-08T06:02:58;16.60;;;13.95;;
24813;SDS011;12904;50.088;11.414;2023-04-08T06:05:24;15.35;;;13.75;;
24813;SDS011;12904;50.088;11.414;2023-04-08T06:07:50;13.75;;;12.20;;
24813;SDS011;12904;50.088;11.414;2023-04-08T06:10:15;17.70;;;13.95;;
24813;SDS011;12904;50.088;11.414;2023-04-08T06:12:41;18.02;;;13.95;;
24813;SDS011;12904;50.088;11.414;2023-04-08T06:15:07;15.25;;;13.65;;
24813;SDS011;12904;50.088;11.414;2023-04-08T06:17:36;17.33;;;13.68;;
24813;SDS011;12904;50.088;11.414;2023-04-08T06:20:03;15.48;;;13.65;;
24813;SDS011;12904;50.088;11.414;2023-04-08T06:22:30;19.63;;;14.25;;
24813;SDS011;12904;50.088;11.414;2023-04-08T06:24:55;12.98;;;11.65;;
24813;SDS011;12904;50.088;11.414;2023-04-08T06:27:21;12.77;;;11.57;;
24813;SDS011;12904;50.088;11.414;2023-04-08T06:29:47;16.27;;;13.60;;
24813;SDS011;12904;50.088;11.414;2023-04-08T06:32:12;15.60;;;13.20;;
24813;SDS011;12904;50.088;11.414;2023-04-08T06:34:38;14.25;;;12.77;;
24813;SDS011;12904;50.088;11.414;2023-04-08T06:37:05;14.77;;;12.85;;
24813;SDS011;12904;50.088;11.414;2023-04-08T06:39:31;12.50;;;11.20;;
24813;SDS011;12904;50.088;11.414;2023-04-08T06:41:56;13.23;;;11.30;;
24813;SDS011;12904;50.088;11.414;2023-04-08T06:44:22;14.75;;;12.25;;
24813;SDS011;12904;50.088;11.414;2023-04-08T06:46:48;13.98;;;10.52;;
24813;SDS011;12904;50.088;11.414;2023-04-08T06:49:13;12.40;;;11.15;;
24813;SDS011;12904;50.088;11.414;2023-04-08T06:51:39;12.30;;;10.40;;
24813;SDS011;12904;50.088;11.414;2023-04-08T06:54:05;11.57;;;10.43;;
24813;SDS011;12904;50.088;11.414;2023-04-08T06:56:31;9.60;;;8.57;;
24813;SDS011;12904;50.088;11.414;2023-04-08T06:58:56;9.32;;;8.38;;
24813;SDS011;12904;50.088;11.414;2023-04-08T07:01:22;9.48;;;8.35;;
24813;SDS011;12904;50.088;11.414;2023-04-08T07:03:48;10.32;;;9.32;;
24813;SDS011;12904;50.088;11.414;2023-04-08T07:06:14;10.48;;;9.40;;
24813;SDS011;12904;50.088;11.414;2023-04-08T07:08:40;10.63;;;9.52;;
24813;SDS011;12904;50.088;11.414;2023-04-08T07:11:06;8.95;;;8.13;;
24813;SDS011;12904;50.088;11.414;2023-04-08T07:13:32;10.55;;;9.45;;
24813;SDS011;12904;50.088;11.414;2023-04-08T07:15:58;9.60;;;8.70;;
24813;SDS011;12904;50.088;11.414;2023-04-08T07:18:23;8.30;;;7.43;;
24813;SDS011;12904;50.088;11.414;2023-04-08T07:20:50;9.93;;;8.93;;
24813;SDS011;12904;50.088;11.414;2023-04-08T07:23:17;8.65;;;7.75;;
24813;SDS011;12904;50.088;11.414;2023-04-08T07:25:44;8.00;;;7.25;;
24813;SDS011;12904;50.088;11.414;2023-04-08T07:28:09;7.25;;;5.57;;
24813;SDS011;12904;50.088;11.414;2023-04-08T07:30:35;5.80;;;5.18;;
24813;SDS011;12904;50.088;11.414;2023-04-08T07:33:01;5.32;;;4.68;;
24813;SDS011;12904;50.088;11.414;2023-04-08T07:35:27;4.13;;;3.63;;
24813;SDS011;12904;50.088;11.414;2023-04-08T07:37:53;4.60;;;4.20;;
24813;SDS011;12904;50.088;11.414;2023-04-08T07:40:19;4.78;;;4.15;;
24813;SDS011;12904;50.088;11.414;2023-04-08T07:42:44;3.22;;;2.92;;
24813;SDS011;12904;50.088;11.414;2023-04-08T07:45:10;3.50;;;3.20;;
24813;SDS011;12904;50.088;11.414;2023-04-08T07:47:38;3.85;;;3.38;;
24813;SDS011;12904;50.088;11.414;2023-04-08T07:50:04;4.35;;;3.28;;
24813;SDS011;12904;50.088;11.414;2023-04-08T07:52:31;3.17;;;2.80;;
24813;SDS011;12904;50.088;11.414;2023-04-08T07:54:57;3.28;;;2.97;;
24813;SDS011;12904;50.088;11.414;2023-04-08T07:57:23;3.95;;;3.17;;
24813;SDS011;12904;50.088;11.414;2023-04-08T07:59:49;4.13;;;3.13;;
24813;SDS011;12904;50.088;11.414;2023-04-08T08:02:15;3.35;;;2.70;;
24813;SDS011;12904;50.088;11.414;2023-04-08T08:04:40;2.88;;;2.33;;
24813;SDS011;12904;50.088;11.414;2023-04-08T08:07:06;2.65;;;2.20;;
24813;SDS011;12904;50.088;11.414;2023-04-08T08:09:31;2.90;;;2.60;;
24813;SDS011;12904;50.088;11.414;2023-04-08T08:11:57;3.03;;;2.58;;
24813;SDS011;12904;50.088;11.414;2023-04-08T08:14:23;2.80;;;2.50;;
24813;SDS011;12904;50.088;11.414;2023-04-08T08:16:50;3.13;;;2.40;;
24813;SDS011;12904;50.088;11.414;2023-04-08T08:19:18;3.60;;;2.33;;
24813;SDS011;12904;50.088;11.414;2023-04-08T08:21:44;2.83;;;2.53;;
24813;SDS011;12904;50.088;11.414;2023-04-08T08:24:10;2.10;;;1.90;;
24813;SDS011;12904;50.088;11.414;2023-04-08T08:26:36;2.13;;;1.73;;
24813;SDS011;12904;50.088;11.414;2023-04-08T08:29:01;1.77;;;1.58;;
24813;SDS011;12904;50.088;11.414;2023-04-08T08:31:28;2.42;;;1.73;;
24813;SDS011;12904;50.088;11.414;2023-04-08T08:33:53;2.03;;;1.60;;
24813;SDS011;12904;50.088;11.414;2023-04-08T08:36:19;1.83;;;1.70;;
24813;SDS011;12904;50.088;11.414;2023-04-08T08:38:45;2.13;;;1.92;;
24813;SDS011;12904;50.088;11.414;2023-04-08T08:41:10;1.80;;;1.67;;
24813;SDS011;12904;50.088;11.414;2023-04-08T08:43:36;2.30;;;2.10;;
24813;SDS011;12904;50.088;11.414;2023-04-08T08:46:03;2.30;;;2.10;;
24813;SDS011;12904;50.088;11.414;2023-04-08T08:48:30;2.30;;;1.90;;
24813;SDS011;12904;50.088;11.414;2023-04-08T08:50:57;2.88;;;1.90;;
24813;SDS011;12904;50.088;11.414;2023-04-08T08:53:27;2.78;;;1.85;;
24813;SDS011;12904;50.088;11.414;2023-04-08T08:55:54;2.20;;;2.00;;
24813;SDS011;12904;50.088;11.414;2023-04-08T08:58:20;1.85;;;1.75;;
24813;SDS011;12904;50.088;11.414;2023-04-08T09:00:46;2.30;;;2.10;;
24813;SDS011;12904;50.088;11.414;2023-04-08T09:03:18;2.22;;;2.00;;
24813;SDS011;12904;50.088;11.414;2023-04-08T09:05:55;1.83;;;1.70;;
24813;SDS011;12904;50.088;11.414;2023-04-08T09:08:33;4.43;;;2.92;;
24813;SDS011;12904;50.088;11.414;2023-04-08T09:11:09;1.67;;;1.58;;
24813;SDS011;12904;50.088;11.414;2023-04-08T09:13:42;3.28;;;2.40;;
24813;SDS011;12904;50.088;11.414;2023-04-08T09:16:09;3.00;;;2.63;;
24813;SDS011;12904;50.088;11.414;2023-04-08T09:18:37;4.47;;;2.90;;
24813;SDS011;12904;50.088;11.414;2023-04-08T09:21:04;3.88;;;3.47;;
24813;SDS011;12904;50.088;11.414;2023-04-08T09:26:10;3.33;;;2.35;;
24813;SDS011;12904;50.088;11.414;2023-04-08T09:29:00;1.92;;;1.70;;
24813;SDS011;12904;50.088;11.414;2023-04-08T09:31:28;2.35;;;1.90;;
24813;SDS011;12904;50.088;11.414;2023-04-08T09:33:55;3.60;;;2.60;;
24813;SDS011;12904;50.088;11.414;2023-04-08T09:36:22;3.58;;;3.28;;
24813;SDS011;12904;50.088;11.414;2023-04-08T09:38:50;3.22;;;2.92;;
24813;SDS011;12904;50.088;11.414;2023-04-08T09:41:16;5.60;;;3.67;;
24813;SDS011;12904;50.088;11.414;2023-04-08T09:43:48;4.13;;;3.70;;
24813;SDS011;12904;50.088;11.414;2023-04-08T09:57:12;6.18;;;4.50;;
24813;SDS011;12904;50.088;11.414;2023-04-08T09:59:42;8.15;;;5.80;;
24813;SDS011;12904;50.088;11.414;2023-04-08T10:02:14;9.55;;;8.52;;
24813;SDS011;12904;50.088;11.414;2023-04-08T10:04:44;6.72;;;5.88;;
24813;SDS011;12904;50.088;11.414;2023-04-08T10:07:14;7.47;;;5.90;;
24813;SDS011;12904;50.088;11.414;2023-04-08T10:09:40;9.68;;;7.30;;
24813;SDS011;12904;50.088;11.414;2023-04-08T10:12:07;4.75;;;4.25;;
24813;SDS011;12904;50.088;11.414;2023-04-08T10:14:33;6.53;;;5.93;;
24813;SDS011;12904;50.088;11.414;2023-04-08T10:17:22;6.18;;;5.45;;
24813;SDS011;12904;50.088;11.414;2023-04-08T10:19:50;5.95;;;5.35;;
24813;SDS011;12904;50.088;11.414;2023-04-08T10:33:18;4.07;;;3.55;;
24813;SDS011;12904;50.088;11.414;2023-04-08T10:35:56;10.68;;;8.35;;
24813;SDS011;12904;50.088;11.414;2023-04-08T10:38:24;3.80;;;3.30;;
24813;SDS011;12904;50.088;11.414;2023-04-08T10:40:51;3.80;;;3.33;;
24813;SDS011;12904;50.088;11.414;2023-04-08T10:43:18;4.80;;;4.25;;
24813;SDS011;12904;50.088;11.414;2023-04-08T10:45:44;4.70;;;3.13;;
24813;SDS011;12904;50.088;11.414;2023-04-08T10:48:11;4.90;;;4.40;;
24813;SDS011;12904;50.088;11.414;2023-04-08T10:50:39;3.88;;;2.45;;
24813;SDS011;12904;50.088;11.414;2023-04-08T10:53:06;3.17;;;2.40;;
24813;SDS011;12904;50.088;11.414;2023-04-08T10:55:32;4.45;;;3.95;;
24813;SDS011;12904;50.088;11.414;2023-04-08T10:58:08;3.90;;;3.60;;
24813;SDS011;12904;50.088;11.414;2023-04-08T11:00:36;4.28;;;3.88;;
24813;SDS011;12904;50.088;11.414;2023-04-08T11:03:03;4.30;;;3.90;;
24813;SDS011;12904;50.088;11.414;2023-04-08T11:05:31;4.18;;;3.22;;
24813;SDS011;12904;50.088;11.414;2023-04-08T11:08:00;3.20;;;2.78;;
24813;SDS011;12904;50.088;11.414;2023-04-08T11:10:26;3.33;;;3.03;;
24813;SDS011;12904;50.088;11.414;2023-04-08T11:12:56;4.22;;;2.70;;
24813;SDS011;12904;50.088;11.414;2023-04-08T11:15:25;3.72;;;3.03;;
24813;SDS011;12904;50.088;11.414;2023-04-08T11:17:52;3.83;;;2.80;;
24813;SDS011;12904;50.088;11.414;2023-04-08T11:20:19;2.72;;;2.33;;
24813;SDS011;12904;50.088;11.414;2023-04-08T11:22:46;3.58;;;2.78;;
24813;SDS011;12904;50.088;11.414;2023-04-08T11:25:12;3.15;;;2.55;;
24813;SDS011;12904;50.088;11.414;2023-04-08T11:27:37;4.45;;;4.05;;
24813;SDS011;12904;50.088;11.414;2023-04-08T11:30:05;4.25;;;3.58;;
24813;SDS011;12904;50.088;11.414;2023-04-08T11:32:31;4.13;;;3.72;;
24813;SDS011;12904;50.088;11.414;2023-04-08T11:34:59;5.22;;;4.10;;
24813;SDS011;12904;50.088;11.414;2023-04-08T11:37:26;3.90;;;3.50;;
24813;SDS011;12904;50.088;11.414;2023-04-08T11:40:11;4.57;;;3.65;;
24813;SDS011;12904;50.088;11.414;2023-04-08T11:42:37;5.75;;;4.90;;
24813;SDS011;12904;50.088;11.414;2023-04-08T11:45:13;4.28;;;3.88;;
24813;SDS011;12904;50.088;11.414;2023-04-08T11:47:40;4.65;;;4.22;;
24813;SDS011;12904;50.088;11.414;2023-04-08T11:50:06;4.85;;;4.35;;
24813;SDS011;12904;50.088;11.414;2023-04-08T11:52:42;4.55;;;4.03;;
24813;SDS011;12904;50.088;11.414;2023-04-08T11:55:22;4.47;;;4.03;;
24813;SDS011;12904;50.088;11.414;2023-04-08T11:57:48;4.55;;;3.90;;
24813;SDS011;12904;50.088;11.414;2023-04-08T12:00:15;5.22;;;4.72;;
24813;SDS011;12904;50.088;11.414;2023-04-08T12:02:40;4.63;;;3.72;;
24813;SDS011;12904;50.088;11.414;2023-04-08T12:05:06;4.32;;;3.65;;
24813;SDS011;12904;50.088;11.414;2023-04-08T12:07:32;4.47;;;4.07;;
24813;SDS011;12904;50.088;11.414;2023-04-08T12:09:57;4.18;;;3.78;;
24813;SDS011;12904;50.088;11.414;2023-04-08T12:12:23;4.50;;;3.17;;
24813;SDS011;12904;50.088;11.414;2023-04-08T12:14:49;4.25;;;3.58;;
24813;SDS011;12904;50.088;11.414;2023-04-08T12:17:15;4.13;;;3.72;;
24813;SDS011;12904;50.088;11.414;2023-04-08T12:19:40;4.43;;;4.00;;
24813;SDS011;12904;50.088;11.414;2023-04-08T12:22:06;3.97;;;3.08;;
24813;SDS011;12904;50.088;11.414;2023-04-08T12:24:31;4.97;;;3.80;;
24813;SDS011;12904;50.088;11.414;2023-04-08T12:26:57;4.55;;;3.60;;
24813;SDS011;12904;50.088;11.414;2023-04-08T12:29:23;4.40;;;3.53;;
24813;SDS011;12904;50.088;11.414;2023-04-08T12:31:48;4.25;;;3.85;;
24813;SDS011;12904;50.088;11.414;2023-04-08T12:34:14;4.32;;;3.38;;
24813;SDS011;12904;50.088;11.414;2023-04-08T12:36:40;4.13;;;3.15;;
24813;SDS011;12904;50.088;11.414;2023-04-08T12:39:06;4.35;;;3.50;;
24813;SDS011;12904;50.088;11.414;2023-04-08T12:41:32;4.30;;;2.90;;
24813;SDS011;12904;50.088;11.414;2023-04-08T12:43:58;3.55;;;3.17;;
24813;SDS011;12904;50.088;11.414;2023-04-08T12:46:24;4.25;;;2.80;;
24813;SDS011;12904;50.088;11.414;2023-04-08T12:48:50;3.42;;;3.13;;
24813;SDS011;12904;50.088;11.414;2023-04-08T12:51:15;3.50;;;2.47;;
24813;SDS011;12904;50.088;11.414;2023-04-08T12:53:42;3.90;;;3.50;;
24813;SDS011;12904;50.088;11.414;2023-04-08T12:56:07;3.63;;;3.15;;
24813;SDS011;12904;50.088;11.414;2023-04-08T12:58:33;3.80;;;3.35;;
24813;SDS011;12904;50.088;11.414;2023-04-08T13:00:58;4.03;;;3.65;;
24813;SDS011;12904;50.088;11.414;2023-04-08T13:03:24;5.57;;;4.75;;
24813;SDS011;12904;50.088;11.414;2023-04-08T13:05:52;5.10;;;3.25;;
24813;SDS011;12904;50.088;11.414;2023-04-08T13:08:17;3.97;;;3.42;;
24813;SDS011;12904;50.088;11.414;2023-04-08T13:10:43;5.03;;;3.63;;
24813;SDS011;12904;50.088;11.414;2023-04-08T13:13:08;4.65;;;4.05;;
24813;SDS011;12904;50.088;11.414;2023-04-08T13:15:34;4.97;;;4.47;;
24813;SDS011;12904;50.088;11.414;2023-04-08T13:18:00;4.53;;;3.88;;
24813;SDS011;12904;50.088;11.414;2023-04-08T13:20:26;65.07;;;26.45;;
24813;SDS011;12904;50.088;11.414;2023-04-08T13:22:52;21.90;;;12.85;;
24813;SDS011;12904;50.088;11.414;2023-04-08T13:25:17;143.25;;;51.58;;
24813;SDS011;12904;50.088;11.414;2023-04-08T13:27:43;9.18;;;6.18;;
24813;SDS011;12904;50.088;11.414;2023-04-08T13:30:09;50.90;;;19.05;;
24813;SDS011;12904;50.088;11.414;2023-04-08T13:32:35;36.95;;;13.90;;
24813;SDS011;12904;50.088;11.414;2023-04-08T13:35:01;72.47;;;25.02;;
24813;SDS011;12904;50.088;11.414;2023-04-08T13:37:27;86.18;;;27.23;;
24813;SDS011;12904;50.088;11.414;2023-04-08T13:39:52;90.85;;;30.58;;
24813;SDS011;12904;50.088;11.414;2023-04-08T13:42:18;13.80;;;8.73;;
24813;SDS011;12904;50.088;11.414;2023-04-08T13:44:44;8.43;;;3.97;;
24813;SDS011;12904;50.088;11.414;2023-04-08T13:47:10;6.43;;;5.45;;
24813;SDS011;12904;50.088;11.414;2023-04-08T13:49:36;25.52;;;10.23;;
24813;SDS011;12904;50.088;11.414;2023-04-08T13:52:02;8.50;;;7.57;;
24813;SDS011;12904;50.088;11.414;2023-04-08T13:54:28;26.33;;;14.20;;
24813;SDS011;12904;50.088;11.414;2023-04-08T13:56:53;25.58;;;14.63;;
24813;SDS011;12904;50.088;11.414;2023-04-08T13:59:19;18.52;;;14.57;;
24813;SDS011;12904;50.088;11.414;2023-04-08T14:01:45;7.55;;;6.85;;
24813;SDS011;12904;50.088;11.414;2023-04-08T14:04:11;11.05;;;10.10;;
24813;SDS011;12904;50.088;11.414;2023-04-08T14:06:36;8.27;;;7.43;;
24813;SDS011;12904;50.088;11.414;2023-04-08T14:09:02;10.15;;;9.02;;
24813;SDS011;12904;50.088;11.414;2023-04-08T14:11:28;9.65;;;8.65;;
24813;SDS011;12904;50.088;11.414;2023-04-08T14:13:53;14.35;;;10.95;;
24813;SDS011;12904;50.088;11.414;2023-04-08T14:16:19;10.07;;;9.10;;
24813;SDS011;12904;50.088;11.414;2023-04-08T14:18:45;9.65;;;8.68;;
24813;SDS011;12904;50.088;11.414;2023-04-08T14:21:10;11.48;;;9.70;;
24813;SDS011;12904;50.088;11.414;2023-04-08T14:23:38;9.90;;;8.65;;
24813;SDS011;12904;50.088;11.414;2023-04-08T14:26:03;11.57;;;9.48;;
24813;SDS011;12904;50.088;11.414;2023-04-08T14:28:29;9.32;;;7.82;;
24813;SDS011;12904;50.088;11.414;2023-04-08T14:30:55;9.57;;;7.85;;
24813;SDS011;12904;50.088;11.414;2023-04-08T14:33:21;9.82;;;8.50;;
24813;SDS011;12904;50.088;11.414;2023-04-08T14:35:46;10.23;;;8.52;;
24813;SDS011;12904;50.088;11.414;2023-04-08T14:38:12;9.85;;;8.25;;
24813;SDS011;12904;50.088;11.414;2023-04-08T14:40:37;8.73;;;7.55;;
24813;SDS011;12904;50.088;11.414;2023-04-08T14:43:03;9.45;;;8.52;;
24813;SDS011;12904;50.088;11.414;2023-04-08T14:45:29;10.15;;;7.93;;
24813;SDS011;12904;50.088;11.414;2023-04-08T14:47:55;10.15;;;9.15;;
24813;SDS011;12904;50.088;11.414;2023-04-08T14:50:21;8.65;;;7.25;;